sensor_id;sensor_type;location;lat;lon;timestamp;temperature;humidity
23591;DHT22;11973;52.098;7.582;2023-02-02T00:01:53;5.10;99.90
23591;DHT22;11973;52.098;7.582;2023-02-02T00:04:25;5.20;99.90
23591;DHT22;11973;52.098;7.582;2023-02-02T00:06:55;5.10;99.90
23591;DHT22;11973;52.098;7.582;2023-02-02T00:09:26;5.10;99.90
23591;DHT22;11973;52.098;7.582;2023-02-02T00:11:53;5.10;99.90
23591;DHT22;11973;52.098;7.582;2023-02-02T00:14:20;5.10;99.90
23591;DHT22;11973;52.098;7.582;2023-02-02T00:16:50;5.10;99.90
23591;DHT22;11973;52.098;7.582;2023-02-02T00:19:21;5.10;99.90
23591;DHT22;11973;52.098;7.582;2023-02-02T00:21:47;5.10;99.90
23591;DHT22;11973;52.098;7.582;2023-02-02T00:24:14;5.10;99.90
23591;DHT22;11973;52.098;7.582;2023-02-02T00:26:42;5.00;99.90
23591;DHT22;11973;52.098;7.582;2023-02-02T00:29:14;5.10;99.90
23591;DHT22;11973;52.098;7.582;2023-02-02T00:31:40;5.10;99.90
23591;DHT22;11973;52.098;7.582;2023-02-02T00:34:06;5.00;99.90
23591;DHT22;11973;52.098;7.582;2023-02-02T00:36:31;5.00;99.90
23591;DHT22;11973;52.098;7.582;2023-02-02T00:38:57;5.10;99.90
23591;DHT22;11973;52.098;7.582;2023-02-02T00:41:23;5.10;99.90
23591;DHT22;11973;52.098;7.582;2023-02-02T00:43:48;5.00;99.90
23591;DHT22;11973;52.098;7.582;2023-02-02T00:46:38;5.00;99.90
23591;DHT22;11973;52.098;7.582;2023-02-02T00:49:04;5.00;99.90
23591;DHT22;11973;52.098;7.582;2023-02-02T00:51:30;5.00;99.90
23591;DHT22;11973;52.098;7.582;2023-02-02T00:53:56;5.00;99.90
23591;DHT22;11973;52.098;7.582;2023-02-02T00:56:22;4.90;99.90
23591;DHT22;11973;52.098;7.582;2023-02-02T00:58:47;5.00;99.90
23591;DHT22;11973;52.098;7.582;2023-02-02T01:01:20;4.90;99.90
23591;DHT22;11973;52.098;7.582;2023-02-02T01:03:47;4.90;99.90
23591;DHT22;11973;52.098;7.582;2023-02-02T01:06:13;4.90;99.90
23591;DHT22;11973;52.098;7.582;2023-02-02T01:08:39;4.90;99.90
23591;DHT22;11973;52.098;7.582;2023-02-02T01:11:06;4.90;99.90
23591;DHT22;11973;52.098;7.582;2023-02-02T01:13:32;4.90;99.90
23591;DHT22;11973;52.098;7.582;2023-02-02T01:16:00;4.90;99.90
23591;DHT22;11973;52.098;7.582;2023-02-02T01:18:26;4.90;99.90
23591;DHT22;11973;52.098;7.582;2023-02-02T01:21:00;4.90;99.90
23591;DHT22;11973;52.098;7.582;2023-02-02T01:23:26;4.90;99.90
23591;DHT22;11973;52.098;7.582;2023-02-02T01:25:57;4.90;99.90
23591;DHT22;11973;52.098;7.582;2023-02-02T01:28:23;4.90;99.90
23591;DHT22;11973;52.098;7.582;2023-02-02T01:30:49;4.90;99.90
23591;DHT22;11973;52.098;7.582;2023-02-02T01:33:16;4.90;99.90
23591;DHT22;11973;52.098;7.582;2023-02-02T01:35:53;4.90;99.90
23591;DHT22;11973;52.098;7.582;2023-02-02T01:38:20;4.90;99.90
23591;DHT22;11973;52.098;7.582;2023-02-02T01:40:54;4.90;99.90
23591;DHT22;11973;52.098;7.582;2023-02-02T01:46:17;5.00;99.90
23591;DHT22;11973;52.098;7.582;2023-02-02T01:48:47;5.10;99.90
23591;DHT22;11973;52.098;7.582;2023-02-02T01:51:18;5.10;99.90
23591;DHT22;11973;52.098;7.582;2023-02-02T01:53:46;5.10;99.90
23591;DHT22;11973;52.098;7.582;2023-02-02T01:56:18;5.20;99.90
23591;DHT22;11973;52.098;7.582;2023-02-02T01:58:45;5.20;99.90
23591;DHT22;11973;52.098;7.582;2023-02-02T02:01:12;5.20;99.90
23591;DHT22;11973;52.098;7.582;2023-02-02T02:03:39;5.20;99.90
23591;DHT22;11973;52.098;7.582;2023-02-02T02:06:13;5.20;99.90
23591;DHT22;11973;52.098;7.582;2023-02-02T02:09:01;5.30;99.90
23591;DHT22;11973;52.098;7.582;2023-02-02T02:11:32;5.30;99.90
23591;DHT22;11973;52.098;7.582;2023-02-02T02:14:00;5.30;99.90
23591;DHT22;11973;52.098;7.582;2023-02-02T02:17:09;5.30;99.90
23591;DHT22;11973;52.098;7.582;2023-02-02T02:25:55;5.50;99.90
23591;DHT22;11973;52.098;7.582;2023-02-02T02:37:30;5.50;99.90
23591;DHT22;11973;52.098;7.582;2023-02-02T02:42:44;5.60;99.90
23591;DHT22;11973;52.098;7.582;2023-02-02T02:45:11;5.60;99.90
23591;DHT22;11973;52.098;7.582;2023-02-02T02:47:38;5.60;99.90
23591;DHT22;11973;52.098;7.582;2023-02-02T02:50:05;5.70;99.90
23591;DHT22;11973;52.098;7.582;2023-02-02T02:52:32;5.70;99.90
23591;DHT22;11973;52.098;7.582;2023-02-02T02:55:00;5.60;99.90
23591;DHT22;11973;52.098;7.582;2023-02-02T03:00:57;5.60;99.90
23591;DHT22;11973;52.098;7.582;2023-02-02T03:06:11;5.60;99.90
23591;DHT22;11973;52.098;7.582;2023-02-02T03:08:46;5.60;99.90
23591;DHT22;11973;52.098;7.582;2023-02-02T03:11:14;5.60;99.90
23591;DHT22;11973;52.098;7.582;2023-02-02T03:13:41;5.60;99.90
23591;DHT22;11973;52.098;7.582;2023-02-02T03:16:07;5.70;99.90
23591;DHT22;11973;52.098;7.582;2023-02-02T03:18:33;5.70;99.90
23591;DHT22;11973;52.098;7.582;2023-02-02T03:20:59;5.70;99.90
23591;DHT22;11973;52.098;7.582;2023-02-02T03:23:25;5.70;99.90
23591;DHT22;11973;52.098;7.582;2023-02-02T03:25:51;5.80;99.90
23591;DHT22;11973;52.098;7.582;2023-02-02T03:28:17;5.80;99.90
23591;DHT22;11973;52.098;7.582;2023-02-02T03:30:44;5.80;99.90
23591;DHT22;11973;52.098;7.582;2023-02-02T03:33:11;5.80;99.90
23591;DHT22;11973;52.098;7.582;2023-02-02T03:35:38;5.90;99.90
23591;DHT22;11973;52.098;7.582;2023-02-02T03:38:04;5.80;99.90
23591;DHT22;11973;52.098;7.582;2023-02-02T03:40:29;5.90;99.90
23591;DHT22;11973;52.098;7.582;2023-02-02T03:42:55;5.90;99.90
23591;DHT22;11973;52.098;7.582;2023-02-02T03:45:21;6.00;99.90
23591;DHT22;11973;52.098;7.582;2023-02-02T03:47:47;6.00;99.90
23591;DHT22;11973;52.098;7.582;2023-02-02T03:50:13;6.00;99.90
23591;DHT22;11973;52.098;7.582;2023-02-02T03:52:39;6.00;99.90
23591;DHT22;11973;52.098;7.582;2023-02-02T03:55:05;6.20;99.90
23591;DHT22;11973;52.098;7.582;2023-02-02T03:57:31;6.00;99.90
23591;DHT22;11973;52.098;7.582;2023-02-02T03:59:57;6.10;99.90
23591;DHT22;11973;52.098;7.582;2023-02-02T04:02:23;6.00;99.90
23591;DHT22;11973;52.098;7.582;2023-02-02T04:04:49;6.00;99.90
23591;DHT22;11973;52.098;7.582;2023-02-02T04:07:14;6.00;99.90
23591;DHT22;11973;52.098;7.582;2023-02-02T04:09:40;6.10;99.90
23591;DHT22;11973;52.098;7.582;2023-02-02T04:12:06;6.10;99.90
23591;DHT22;11973;52.098;7.582;2023-02-02T04:14:31;6.10;99.90
23591;DHT22;11973;52.098;7.582;2023-02-02T04:16:57;6.10;99.90
23591;DHT22;11973;52.098;7.582;2023-02-02T04:19:23;6.10;99.90
23591;DHT22;11973;52.098;7.582;2023-02-02T04:21:48;6.10;99.90
23591;DHT22;11973;52.098;7.582;2023-02-02T04:24:14;6.10;99.90
23591;DHT22;11973;52.098;7.582;2023-02-02T04:26:41;6.10;99.90
23591;DHT22;11973;52.098;7.582;2023-02-02T04:29:07;6.10;99.90
23591;DHT22;11973;52.098;7.582;2023-02-02T04:31:33;6.10;99.90
23591;DHT22;11973;52.098;7.582;2023-02-02T04:33:59;6.10;99.90
23591;DHT22;11973;52.098;7.582;2023-02-02T04:36:25;6.10;99.90
23591;DHT22;11973;52.098;7.582;2023-02-02T04:38:52;6.10;99.90
23591;DHT22;11973;52.098;7.582;2023-02-02T04:41:18;6.10;99.90
23591;DHT22;11973;52.098;7.582;2023-02-02T04:43:45;6.10;99.90
23591;DHT22;11973;52.098;7.582;2023-02-02T04:46:11;6.10;99.90
23591;DHT22;11973;52.098;7.582;2023-02-02T04:48:37;6.10;99.90
23591;DHT22;11973;52.098;7.582;2023-02-02T04:51:05;6.10;99.90
23591;DHT22;11973;52.098;7.582;2023-02-02T04:53:31;6.10;99.90
23591;DHT22;11973;52.098;7.582;2023-02-02T04:55:57;6.10;99.90
23591;DHT22;11973;52.098;7.582;2023-02-02T04:58:29;6.00;99.90
23591;DHT22;11973;52.098;7.582;2023-02-02T05:00:54;6.00;99.90
23591;DHT22;11973;52.098;7.582;2023-02-02T05:03:20;6.00;99.90
23591;DHT22;11973;52.098;7.582;2023-02-02T05:05:45;6.00;99.90
23591;DHT22;11973;52.098;7.582;2023-02-02T05:08:11;6.00;99.90
23591;DHT22;11973;52.098;7.582;2023-02-02T05:10:40;6.00;99.90
23591;DHT22;11973;52.098;7.582;2023-02-02T05:13:07;6.20;99.90
23591;DHT22;11973;52.098;7.582;2023-02-02T06:01:20;6.00;99.90
23591;DHT22;11973;52.098;7.582;2023-02-02T06:03:46;6.00;99.90
23591;DHT22;11973;52.098;7.582;2023-02-02T06:06:12;6.00;99.90
23591;DHT22;11973;52.098;7.582;2023-02-02T06:08:38;6.10;99.90
23591;DHT22;11973;52.098;7.582;2023-02-02T06:11:11;6.00;99.90
23591;DHT22;11973;52.098;7.582;2023-02-02T06:13:37;6.00;99.90
23591;DHT22;11973;52.098;7.582;2023-02-02T06:16:03;6.00;99.90
23591;DHT22;11973;52.098;7.582;2023-02-02T06:18:29;5.90;99.90
23591;DHT22;11973;52.098;7.582;2023-02-02T06:20:57;6.00;99.90
23591;DHT22;11973;52.098;7.582;2023-02-02T06:23:22;6.00;99.90
23591;DHT22;11973;52.098;7.582;2023-02-02T06:25:48;6.00;99.90
23591;DHT22;11973;52.098;7.582;2023-02-02T06:28:14;6.00;99.90
23591;DHT22;11973;52.098;7.582;2023-02-02T06:30:39;6.00;99.90
23591;DHT22;11973;52.098;7.582;2023-02-02T06:33:05;5.90;99.90
23591;DHT22;11973;52.098;7.582;2023-02-02T06:35:32;5.90;99.90
23591;DHT22;11973;52.098;7.582;2023-02-02T06:37:58;5.90;99.90
23591;DHT22;11973;52.098;7.582;2023-02-02T06:40:25;5.90;99.90
23591;DHT22;11973;52.098;7.582;2023-02-02T06:42:55;5.90;99.90
23591;DHT22;11973;52.098;7.582;2023-02-02T06:45:21;5.90;99.90
23591;DHT22;11973;52.098;7.582;2023-02-02T06:47:47;5.90;99.90
23591;DHT22;11973;52.098;7.582;2023-02-02T06:50:12;5.80;99.90
23591;DHT22;11973;52.098;7.582;2023-02-02T06:52:38;5.80;99.90
23591;DHT22;11973;52.098;7.582;2023-02-02T06:55:04;5.70;99.90
23591;DHT22;11973;52.098;7.582;2023-02-02T06:57:30;5.70;99.90
23591;DHT22;11973;52.098;7.582;2023-02-02T06:59:55;5.70;99.90
23591;DHT22;11973;52.098;7.582;2023-02-02T07:02:21;5.90;99.90
23591;DHT22;11973;52.098;7.582;2023-02-02T07:04:48;5.60;99.90
23591;DHT22;11973;52.098;7.582;2023-02-02T07:07:13;5.90;99.90
23591;DHT22;11973;52.098;7.582;2023-02-02T07:09:39;5.60;99.90
23591;DHT22;11973;52.098;7.582;2023-02-02T07:12:05;5.60;99.90
23591;DHT22;11973;52.098;7.582;2023-02-02T07:14:30;5.60;99.90
23591;DHT22;11973;52.098;7.582;2023-02-02T07:16:56;5.60;99.90
23591;DHT22;11973;52.098;7.582;2023-02-02T07:19:22;5.60;99.90
23591;DHT22;11973;52.098;7.582;2023-02-02T07:21:48;5.50;99.90
23591;DHT22;11973;52.098;7.582;2023-02-02T07:24:13;5.50;99.90
23591;DHT22;11973;52.098;7.582;2023-02-02T07:26:39;5.50;99.90
23591;DHT22;11973;52.098;7.582;2023-02-02T07:29:05;5.70;99.90
23591;DHT22;11973;52.098;7.582;2023-02-02T07:31:31;5.70;99.90
23591;DHT22;11973;52.098;7.582;2023-02-02T07:33:56;5.50;99.90
23591;DHT22;11973;52.098;7.582;2023-02-02T07:36:23;5.50;99.90
23591;DHT22;11973;52.098;7.582;2023-02-02T07:38:50;5.50;99.90
23591;DHT22;11973;52.098;7.582;2023-02-02T07:41:18;5.50;99.90
23591;DHT22;11973;52.098;7.582;2023-02-02T07:43:48;5.50;99.90
23591;DHT22;11973;52.098;7.582;2023-02-02T07:46:15;5.50;99.90
23591;DHT22;11973;52.098;7.582;2023-02-02T07:48:41;5.50;99.90
23591;DHT22;11973;52.098;7.582;2023-02-02T07:51:10;5.70;99.90
23591;DHT22;11973;52.098;7.582;2023-02-02T07:53:36;5.50;99.90
23591;DHT22;11973;52.098;7.582;2023-02-02T07:56:13;5.50;99.90
23591;DHT22;11973;52.098;7.582;2023-02-02T07:58:40;5.50;99.90
23591;DHT22;11973;52.098;7.582;2023-02-02T08:01:07;5.40;99.90
23591;DHT22;11973;52.098;7.582;2023-02-02T08:03:34;5.50;99.90
23591;DHT22;11973;52.098;7.582;2023-02-02T08:06:00;5.50;99.90
23591;DHT22;11973;52.098;7.582;2023-02-02T08:08:32;5.40;99.90
23591;DHT22;11973;52.098;7.582;2023-02-02T08:10:58;5.40;99.90
23591;DHT22;11973;52.098;7.582;2023-02-02T08:13:23;5.50;99.90
23591;DHT22;11973;52.098;7.582;2023-02-02T08:15:49;5.50;99.90
23591;DHT22;11973;52.098;7.582;2023-02-02T08:18:15;5.50;99.90
23591;DHT22;11973;52.098;7.582;2023-02-02T08:20:41;5.60;99.90
23591;DHT22;11973;52.098;7.582;2023-02-02T08:23:07;5.70;99.90
23591;DHT22;11973;52.098;7.582;2023-02-02T08:25:38;5.50;99.90
23591;DHT22;11973;52.098;7.582;2023-02-02T08:28:04;5.50;99.90
23591;DHT22;11973;52.098;7.582;2023-02-02T08:30:31;5.50;99.90
23591;DHT22;11973;52.098;7.582;2023-02-02T08:32:56;5.50;99.90
23591;DHT22;11973;52.098;7.582;2023-02-02T08:35:22;5.50;99.90
23591;DHT22;11973;52.098;7.582;2023-02-02T08:37:48;5.60;99.90
23591;DHT22;11973;52.098;7.582;2023-02-02T08:40:14;5.60;99.90
23591;DHT22;11973;52.098;7.582;2023-02-02T08:42:40;5.60;99.90
23591;DHT22;11973;52.098;7.582;2023-02-02T08:45:06;5.60;99.90
23591;DHT22;11973;52.098;7.582;2023-02-02T08:47:32;5.60;99.90
23591;DHT22;11973;52.098;7.582;2023-02-02T08:49:57;5.70;99.90
23591;DHT22;11973;52.098;7.582;2023-02-02T08:52:23;5.70;99.90
23591;DHT22;11973;52.098;7.582;2023-02-02T08:54:49;5.70;99.90
23591;DHT22;11973;52.098;7.582;2023-02-02T08:57:14;5.70;99.90
23591;DHT22;11973;52.098;7.582;2023-02-02T08:59:40;5.70;99.90
23591;DHT22;11973;52.098;7.582;2023-02-02T09:02:07;5.70;99.90
23591;DHT22;11973;52.098;7.582;2023-02-02T09:04:33;5.80;99.90
23591;DHT22;11973;52.098;7.582;2023-02-02T09:07:00;5.70;99.90
23591;DHT22;11973;52.098;7.582;2023-02-02T09:09:27;5.80;99.90
23591;DHT22;11973;52.098;7.582;2023-02-02T09:11:53;5.80;99.90
23591;DHT22;11973;52.098;7.582;2023-02-02T09:14:19;5.80;99.90
23591;DHT22;11973;52.098;7.582;2023-02-02T09:16:44;5.80;99.90
23591;DHT22;11973;52.098;7.582;2023-02-02T09:19:10;5.80;99.90
23591;DHT22;11973;52.098;7.582;2023-02-02T09:21:36;5.80;99.90
23591;DHT22;11973;52.098;7.582;2023-02-02T09:24:07;5.80;99.90
23591;DHT22;11973;52.098;7.582;2023-02-02T09:26:33;5.90;99.90
23591;DHT22;11973;52.098;7.582;2023-02-02T09:29:03;5.80;99.90
23591;DHT22;11973;52.098;7.582;2023-02-02T09:31:32;6.10;99.90
23591;DHT22;11973;52.098;7.582;2023-02-02T09:34:03;5.90;99.90
23591;DHT22;11973;52.098;7.582;2023-02-02T09:36:30;5.90;99.90
23591;DHT22;11973;52.098;7.582;2023-02-02T09:38:56;6.20;99.90
23591;DHT22;11973;52.098;7.582;2023-02-02T09:47:11;6.00;99.90
23591;DHT22;11973;52.098;7.582;2023-02-02T09:52:30;6.00;99.90
23591;DHT22;11973;52.098;7.582;2023-02-02T09:55:03;6.00;99.90
23591;DHT22;11973;52.098;7.582;2023-02-02T09:57:40;6.20;99.90
23591;DHT22;11973;52.098;7.582;2023-02-02T10:00:44;6.20;99.90
23591;DHT22;11973;52.098;7.582;2023-02-02T10:03:36;6.00;99.90
23591;DHT22;11973;52.098;7.582;2023-02-02T10:08:40;6.10;99.90
23591;DHT22;11973;52.098;7.582;2023-02-02T10:11:26;6.10;99.90
23591;DHT22;11973;52.098;7.582;2023-02-02T10:13:58;6.10;99.90
23591;DHT22;11973;52.098;7.582;2023-02-02T10:16:26;6.20;99.90
23591;DHT22;11973;52.098;7.582;2023-02-02T10:18:58;6.20;99.90
23591;DHT22;11973;52.098;7.582;2023-02-02T10:22:06;6.20;99.90
23591;DHT22;11973;52.098;7.582;2023-02-02T10:24:35;6.20;99.90
23591;DHT22;11973;52.098;7.582;2023-02-02T10:27:04;6.50;99.90
23591;DHT22;11973;52.098;7.582;2023-02-02T10:32:40;6.30;99.90
23591;DHT22;11973;52.098;7.582;2023-02-02T10:46:19;6.40;99.90
23591;DHT22;11973;52.098;7.582;2023-02-02T10:48:47;6.40;99.90
23591;DHT22;11973;52.098;7.582;2023-02-02T10:51:26;6.40;99.90
23591;DHT22;11973;52.098;7.582;2023-02-02T10:54:01;6.50;99.90
23591;DHT22;11973;52.098;7.582;2023-02-02T10:56:39;6.50;99.90
23591;DHT22;11973;52.098;7.582;2023-02-02T10:59:14;6.50;99.90
23591;DHT22;11973;52.098;7.582;2023-02-02T11:01:44;6.50;99.90
23591;DHT22;11973;52.098;7.582;2023-02-02T11:04:10;6.60;99.90
23591;DHT22;11973;52.098;7.582;2023-02-02T11:06:55;6.60;99.90
23591;DHT22;11973;52.098;7.582;2023-02-02T11:09:23;6.80;99.90
23591;DHT22;11973;52.098;7.582;2023-02-02T11:12:09;6.60;99.90
23591;DHT22;11973;52.098;7.582;2023-02-02T11:14:46;6.60;99.90
23591;DHT22;11973;52.098;7.582;2023-02-02T11:17:24;6.60;99.90
23591;DHT22;11973;52.098;7.582;2023-02-02T11:19:51;6.60;99.90
23591;DHT22;11973;52.098;7.582;2023-02-02T11:22:33;6.60;99.90
23591;DHT22;11973;52.098;7.582;2023-02-02T11:25:21;6.60;99.90
23591;DHT22;11973;52.098;7.582;2023-02-02T11:27:47;6.90;99.90
23591;DHT22;11973;52.098;7.582;2023-02-02T11:30:32;6.60;99.90
23591;DHT22;11973;52.098;7.582;2023-02-02T11:32:58;6.60;99.90
23591;DHT22;11973;52.098;7.582;2023-02-02T11:35:27;6.60;99.90
23591;DHT22;11973;52.098;7.582;2023-02-02T11:38:12;6.60;99.90
23591;DHT22;11973;52.098;7.582;2023-02-02T11:46:27;6.70;99.90
23591;DHT22;11973;52.098;7.582;2023-02-02T11:51:27;6.70;99.90
23591;DHT22;11973;52.098;7.582;2023-02-02T11:54:25;6.80;99.90
23591;DHT22;11973;52.098;7.582;2023-02-02T11:56:56;6.70;99.90
23591;DHT22;11973;52.098;7.582;2023-02-02T12:04:38;6.70;99.90
23591;DHT22;11973;52.098;7.582;2023-02-02T12:07:22;6.70;99.90
23591;DHT22;11973;52.098;7.582;2023-02-02T12:09:49;6.70;99.90
23591;DHT22;11973;52.098;7.582;2023-02-02T12:12:30;6.70;99.90
23591;DHT22;11973;52.098;7.582;2023-02-02T12:17:42;6.70;99.90
23591;DHT22;11973;52.098;7.582;2023-02-02T12:26:34;6.60;99.90
23591;DHT22;11973;52.098;7.582;2023-02-02T12:29:10;6.60;99.90
23591;DHT22;11973;52.098;7.582;2023-02-02T12:34:32;6.60;99.90
23591;DHT22;11973;52.098;7.582;2023-02-02T12:43:21;6.70;99.90
23591;DHT22;11973;52.098;7.582;2023-02-02T12:46:06;6.70;99.90
23591;DHT22;11973;52.098;7.582;2023-02-02T12:48:55;6.70;99.90
23591;DHT22;11973;52.098;7.582;2023-02-02T12:56:39;6.70;99.90
23591;DHT22;11973;52.098;7.582;2023-02-02T13:12:28;6.70;99.90
23591;DHT22;11973;52.098;7.582;2023-02-02T13:15:01;6.70;99.90
23591;DHT22;11973;52.098;7.582;2023-02-02T13:22:49;6.70;99.90
23591;DHT22;11973;52.098;7.582;2023-02-02T13:25:29;6.70;99.90
23591;DHT22;11973;52.098;7.582;2023-02-02T13:27:58;6.70;99.90
23591;DHT22;11973;52.098;7.582;2023-02-02T13:30:30;6.70;99.90
23591;DHT22;11973;52.098;7.582;2023-02-02T13:33:20;6.70;99.90
23591;DHT22;11973;52.098;7.582;2023-02-02T13:38:26;6.70;99.90
23591;DHT22;11973;52.098;7.582;2023-02-02T13:40:58;6.60;99.90
23591;DHT22;11973;52.098;7.582;2023-02-02T13:46:26;6.60;99.90
23591;DHT22;11973;52.098;7.582;2023-02-02T13:57:22;6.60;99.90
23591;DHT22;11973;52.098;7.582;2023-02-02T14:02:46;6.60;99.90
23591;DHT22;11973;52.098;7.582;2023-02-02T14:05:26;6.60;99.90
23591;DHT22;11973;52.098;7.582;2023-02-02T14:10:41;6.50;99.90
23591;DHT22;11973;52.098;7.582;2023-02-02T14:13:20;6.60;99.90
23591;DHT22;11973;52.098;7.582;2023-02-02T14:16:06;6.60;99.90
23591;DHT22;11973;52.098;7.582;2023-02-02T14:26:49;6.50;99.90
23591;DHT22;11973;52.098;7.582;2023-02-02T14:34:42;6.50;99.90
23591;DHT22;11973;52.098;7.582;2023-02-02T14:37:15;6.50;99.90
23591;DHT22;11973;52.098;7.582;2023-02-02T14:46:15;6.40;99.90
23591;DHT22;11973;52.098;7.582;2023-02-02T14:48:35;6.50;99.90
23591;DHT22;11973;52.098;7.582;2023-02-02T14:51:17;6.50;99.90
23591;DHT22;11973;52.098;7.582;2023-02-02T14:53:57;6.40;99.90
23591;DHT22;11973;52.098;7.582;2023-02-02T14:56:46;6.40;99.90
23591;DHT22;11973;52.098;7.582;2023-02-02T14:59:39;6.40;99.90
23591;DHT22;11973;52.098;7.582;2023-02-02T15:02:21;6.40;99.90
23591;DHT22;11973;52.098;7.582;2023-02-02T15:04:48;6.40;99.90
23591;DHT22;11973;52.098;7.582;2023-02-02T15:09:52;6.60;99.90
23591;DHT22;11973;52.098;7.582;2023-02-02T15:12:39;6.40;99.90
23591;DHT22;11973;52.098;7.582;2023-02-02T15:15:25;6.40;99.90
23591;DHT22;11973;52.098;7.582;2023-02-02T15:18:05;6.50;99.90
23591;DHT22;11973;52.098;7.582;2023-02-02T15:20:52;6.50;99.90
23591;DHT22;11973;52.098;7.582;2023-02-02T15:23:29;6.40;99.90
23591;DHT22;11973;52.098;7.582;2023-02-02T15:26:05;6.50;99.90
23591;DHT22;11973;52.098;7.582;2023-02-02T15:28:47;6.50;99.90
23591;DHT22;11973;52.098;7.582;2023-02-02T15:33:49;6.50;99.90
23591;DHT22;11973;52.098;7.582;2023-02-02T15:36:22;6.40;99.90
23591;DHT22;11973;52.098;7.582;2023-02-02T15:38:55;6.50;99.90
23591;DHT22;11973;52.098;7.582;2023-02-02T15:41:30;6.50;99.90
23591;DHT22;11973;52.098;7.582;2023-02-02T15:43:58;6.50;99.90
23591;DHT22;11973;52.098;7.582;2023-02-02T15:46:32;6.50;99.90
23591;DHT22;11973;52.098;7.582;2023-02-02T15:51:47;6.50;99.90
23591;DHT22;11973;52.098;7.582;2023-02-02T15:54:28;6.60;99.90
23591;DHT22;11973;52.098;7.582;2023-02-02T15:56:57;6.50;99.90
23591;DHT22;11973;52.098;7.582;2023-02-02T15:59:44;6.50;99.90
23591;DHT22;11973;52.098;7.582;2023-02-02T16:02:16;6.50;99.90
23591;DHT22;11973;52.098;7.582;2023-02-02T16:04:44;6.50;99.90
23591;DHT22;11973;52.098;7.582;2023-02-02T16:07:18;6.80;99.90
23591;DHT22;11973;52.098;7.582;2023-02-02T16:09:45;6.70;99.90
23591;DHT22;11973;52.098;7.582;2023-02-02T16:12:22;6.70;99.90
23591;DHT22;11973;52.098;7.582;2023-02-02T16:14:51;6.70;99.90
23591;DHT22;11973;52.098;7.582;2023-02-02T16:17:31;6.80;99.90
23591;DHT22;11973;52.098;7.582;2023-02-02T16:20:04;6.90;99.90
23591;DHT22;11973;52.098;7.582;2023-02-02T16:22:39;6.90;99.90
23591;DHT22;11973;52.098;7.582;2023-02-02T16:25:15;6.90;99.90
23591;DHT22;11973;52.098;7.582;2023-02-02T16:27:45;7.10;99.90
23591;DHT22;11973;52.098;7.582;2023-02-02T16:30:36;7.00;99.90
23591;DHT22;11973;52.098;7.582;2023-02-02T16:33:37;7.00;99.90
23591;DHT22;11973;52.098;7.582;2023-02-02T16:36:25;7.00;99.90
23591;DHT22;11973;52.098;7.582;2023-02-02T16:38:53;7.10;99.90
23591;DHT22;11973;52.098;7.582;2023-02-02T16:41:35;7.30;99.90
23591;DHT22;11973;52.098;7.582;2023-02-02T16:44:34;7.10;99.90
23591;DHT22;11973;52.098;7.582;2023-02-02T16:47:01;7.20;99.90
23591;DHT22;11973;52.098;7.582;2023-02-02T16:49:29;7.20;99.90
23591;DHT22;11973;52.098;7.582;2023-02-02T16:52:16;7.20;99.90
23591;DHT22;11973;52.098;7.582;2023-02-02T16:54:54;7.20;99.90
23591;DHT22;11973;52.098;7.582;2023-02-02T16:57:29;7.20;99.90
23591;DHT22;11973;52.098;7.582;2023-02-02T16:59:58;7.20;99.90
23591;DHT22;11973;52.098;7.582;2023-02-02T17:02:31;7.20;99.90
23591;DHT22;11973;52.098;7.582;2023-02-02T17:07:36;7.20;99.90
23591;DHT22;11973;52.098;7.582;2023-02-02T17:12:44;7.30;99.90
23591;DHT22;11973;52.098;7.582;2023-02-02T17:17:46;7.40;99.90
23591;DHT22;11973;52.098;7.582;2023-02-02T17:20:14;7.30;99.90
23591;DHT22;11973;52.098;7.582;2023-02-02T17:22:42;7.30;99.90
23591;DHT22;11973;52.098;7.582;2023-02-02T17:25:24;7.30;99.90
23591;DHT22;11973;52.098;7.582;2023-02-02T17:27:51;7.30;99.90
23591;DHT22;11973;52.098;7.582;2023-02-02T17:30:18;7.40;99.90
23591;DHT22;11973;52.098;7.582;2023-02-02T17:32:44;7.30;99.90
23591;DHT22;11973;52.098;7.582;2023-02-02T17:35:19;7.30;99.90
23591;DHT22;11973;52.098;7.582;2023-02-02T17:37:45;7.30;99.90
23591;DHT22;11973;52.098;7.582;2023-02-02T17:40:13;7.30;99.90
23591;DHT22;11973;52.098;7.582;2023-02-02T17:42:40;7.40;99.90
23591;DHT22;11973;52.098;7.582;2023-02-02T17:45:35;7.40;99.90
23591;DHT22;11973;52.098;7.582;2023-02-02T17:48:04;7.40;99.90
23591;DHT22;11973;52.098;7.582;2023-02-02T17:50:31;7.40;99.90
23591;DHT22;11973;52.098;7.582;2023-02-02T17:52:58;7.40;99.90
23591;DHT22;11973;52.098;7.582;2023-02-02T17:55:35;7.50;99.90
23591;DHT22;11973;52.098;7.582;2023-02-02T17:58:01;7.40;99.90
23591;DHT22;11973;52.098;7.582;2023-02-02T18:00:27;7.40;99.90
23591;DHT22;11973;52.098;7.582;2023-02-02T18:02:56;7.50;99.90
23591;DHT22;11973;52.098;7.582;2023-02-02T18:05:24;7.40;99.90
23591;DHT22;11973;52.098;7.582;2023-02-02T18:07:50;7.40;99.90
23591;DHT22;11973;52.098;7.582;2023-02-02T18:10:16;7.40;99.90
23591;DHT22;11973;52.098;7.582;2023-02-02T18:12:43;7.40;99.90
23591;DHT22;11973;52.098;7.582;2023-02-02T18:15:12;7.40;99.90
23591;DHT22;11973;52.098;7.582;2023-02-02T18:17:38;7.40;99.90
23591;DHT22;11973;52.098;7.582;2023-02-02T18:20:04;7.40;99.90
23591;DHT22;11973;52.098;7.582;2023-02-02T18:22:30;7.40;99.90
23591;DHT22;11973;52.098;7.582;2023-02-02T18:24:56;7.40;99.90
23591;DHT22;11973;52.098;7.582;2023-02-02T18:27:23;7.40;99.90
23591;DHT22;11973;52.098;7.582;2023-02-02T18:29:49;7.40;99.90
23591;DHT22;11973;52.098;7.582;2023-02-02T18:32:15;7.40;99.90
23591;DHT22;11973;52.098;7.582;2023-02-02T18:34:43;7.50;99.90
23591;DHT22;11973;52.098;7.582;2023-02-02T18:37:09;7.40;99.90
23591;DHT22;11973;52.098;7.582;2023-02-02T18:39:35;7.50;99.90
23591;DHT22;11973;52.098;7.582;2023-02-02T18:42:01;7.50;99.90
23591;DHT22;11973;52.098;7.582;2023-02-02T18:44:27;7.40;99.90
23591;DHT22;11973;52.098;7.582;2023-02-02T18:46:53;7.50;99.90
23591;DHT22;11973;52.098;7.582;2023-02-02T18:49:19;7.50;99.90
23591;DHT22;11973;52.098;7.582;2023-02-02T18:51:45;7.50;99.90
23591;DHT22;11973;52.098;7.582;2023-02-02T18:54:12;7.70;99.90
23591;DHT22;11973;52.098;7.582;2023-02-02T18:56:38;7.50;99.90
23591;DHT22;11973;52.098;7.582;2023-02-02T18:59:05;7.50;99.90
23591;DHT22;11973;52.098;7.582;2023-02-02T19:01:32;7.50;99.90
23591;DHT22;11973;52.098;7.582;2023-02-02T19:03:58;7.50;99.90
23591;DHT22;11973;52.098;7.582;2023-02-02T19:06:25;7.50;99.90
23591;DHT22;11973;52.098;7.582;2023-02-02T19:09:10;7.50;99.90
23591;DHT22;11973;52.098;7.582;2023-02-02T19:11:43;7.50;99.90
23591;DHT22;11973;52.098;7.582;2023-02-02T19:16:42;7.50;99.90
23591;DHT22;11973;52.098;7.582;2023-02-02T19:19:27;7.70;99.90
23591;DHT22;11973;52.098;7.582;2023-02-02T19:21:56;7.60;99.90
23591;DHT22;11973;52.098;7.582;2023-02-02T19:24:27;7.60;99.90
23591;DHT22;11973;52.098;7.582;2023-02-02T19:26:57;7.60;99.90
23591;DHT22;11973;52.098;7.582;2023-02-02T19:29:25;7.60;99.90
23591;DHT22;11973;52.098;7.582;2023-02-02T19:32:42;7.60;99.90
23591;DHT22;11973;52.098;7.582;2023-02-02T19:41:19;7.70;99.90
23591;DHT22;11973;52.098;7.582;2023-02-02T19:43:48;7.70;99.90